Time;durP1;ratioP1;P1;durP2;ratioP2;P2;SDS_P1;SDS_P2;PMS_P1;PMS_P2;Temp;Humidity;BMP_temperature;BMP_pressure;BME280_temperature;BME280_humidity;BME280_pressure;Samples;Min_cycle;Max_cycle;Signal;HPM_P1;HPM_P2
2021/10/31 00:00:30;;;;;;;29.10;17.10;;;;;;;5.54;72.22;95426.63;5112783;28;20016;-82
2021/10/31 00:02:55;;;;;;;30.50;16.30;;;;;;;5.61;72.06;95424.53;5095737;28;20036;-83
2021/10/31 00:05:21;;;;;;;33.75;17.40;;;;;;;5.55;72.27;95404.25;5095675;28;20034;-83
2021/10/31 00:07:46;;;;;;;31.30;17.08;;;;;;;5.74;72.57;95433.28;5095563;28;20043;-83
2021/10/31 00:10:12;;;;;;;25.17;15.68;;;;;;;5.83;73.04;95432.78;5113935;28;20023;-83
2021/10/31 00:12:37;;;;;;;28.40;16.23;;;;;;;6.00;72.50;95425.91;5112717;28;20088;-82
2021/10/31 00:15:03;;;;;;;26.60;15.23;;;;;;;5.90;71.95;95386.00;5111489;28;20509;-82
2021/10/31 00:17:28;;;;;;;24.02;13.75;;;;;;;6.18;71.82;95424.88;5112927;28;20069;-82
2021/10/31 00:19:54;;;;;;;26.95;17.38;;;;;;;6.15;71.67;95412.13;5095661;28;20429;-83
2021/10/31 00:22:20;;;;;;;33.70;20.45;;;;;;;6.20;71.45;95420.47;5114010;28;20042;-82
2021/10/31 00:24:45;;;;;;;33.38;19.55;;;;;;;6.26;71.31;95421.84;5112077;28;20031;-82
2021/10/31 00:27:11;;;;;;;34.13;18.73;;;;;;;6.30;71.34;95417.38;5112540;28;20027;-83
2021/10/31 00:29:36;;;;;;;33.75;18.55;;;;;;;6.26;71.05;95406.38;5112325;28;20031;-82
2021/10/31 00:32:02;;;;;;;27.17;15.55;;;;;;;6.37;71.06;95419.50;5095033;28;20467;-82
2021/10/31 00:34:28;;;;;;;23.83;14.18;;;;;;;6.40;71.08;95415.91;5111732;28;20043;-83
2021/10/31 00:36:53;;;;;;;27.30;15.40;;;;;;;6.39;71.39;95404.78;5113732;28;20473;-83
2021/10/31 00:39:19;;;;;;;31.58;16.98;;;;;;;6.39;71.32;95409.94;5095190;28;20031;-81
2021/10/31 00:41:44;;;;;;;25.58;14.70;;;;;;;6.41;71.29;95407.28;5112257;28;20400;-83
2021/10/31 00:44:09;;;;;;;29.88;18.00;;;;;;;6.30;71.53;95399.31;5111869;28;20132;-83
2021/10/31 00:46:35;;;;;;;24.00;13.93;;;;;;;6.24;71.49;95385.84;5111888;28;20036;-83
2021/10/31 00:49:00;;;;;;;30.23;16.55;;;;;;;6.21;71.44;95383.44;5095056;28;20526;-83
2021/10/31 00:51:27;;;;;;;28.50;16.40;;;;;;;6.28;71.46;95406.31;5094931;28;20023;-83
2021/10/31 00:53:56;;;;;;;32.10;17.63;;;;;;;6.08;71.49;95418.56;5111530;28;20141;-83
2021/10/31 00:56:22;;;;;;;42.22;23.17;;;;;;;6.04;72.00;95411.91;5078390;28;20023;-83
2021/10/31 00:58:48;;;;;;;35.55;19.75;;;;;;;6.09;71.85;95406.50;5077871;28;20118;-82
2021/10/31 01:01:13;;;;;;;33.47;19.27;;;;;;;6.00;71.79;95388.03;5111758;28;20023;-83
2021/10/31 01:03:40;;;;;;;32.92;19.88;;;;;;;6.11;71.71;95405.50;5094462;28;20036;-83
2021/10/31 01:06:40;;;;;;;30.10;17.13;;;;;;;6.10;71.33;95403.84;5111701;28;20038;-83
2021/10/31 01:09:31;;;;;;;28.48;16.77;;;;;;;6.07;71.25;95404.00;5112542;28;20065;-83
2021/10/31 01:12:15;;;;;;;30.40;17.33;;;;;;;6.04;71.51;95399.88;5104121;28;20566;-82
2021/10/31 01:14:52;;;;;;;27.08;14.63;;;;;;;6.01;71.54;95399.19;5111172;28;20043;-83
2021/10/31 01:17:37;;;;;;;35.05;19.60;;;;;;;6.00;71.40;95394.94;5111430;28;20035;-82
2021/10/31 01:20:18;;;;;;;28.83;15.93;;;;;;;6.01;71.32;95396.59;5112725;28;20114;-82
2021/10/31 01:23:33;;;;;;;33.20;16.38;;;;;;;5.90;71.55;95375.69;5094561;28;20080;-83
2021/10/31 01:26:25;;;;;;;33.03;16.60;;;;;;;5.97;71.35;95392.53;5095224;28;20508;-83
2021/10/31 01:29:05;;;;;;;;;;;;;;;5.87;71.72;95389.59;5096039;28;20043;-82
2021/10/31 01:31:39;;;;;;;25.25;13.45;;;;;;;5.75;72.00;95390.28;5110873;28;19918;-83
2021/10/31 01:34:18;;;;;;;33.90;17.92;;;;;;;5.73;72.71;95390.34;5112256;28;20078;-83
2021/10/31 01:37:10;;;;;;;28.92;17.70;;;;;;;5.67;72.50;95364.91;5111001;28;20386;-82
2021/10/31 01:39:44;;;;;;;27.10;15.88;;;;;;;5.85;72.25;95385.44;5078730;28;20028;-83
2021/10/31 01:42:17;;;;;;;22.55;12.70;;;;;;;5.90;72.25;95383.44;5094258;28;20027;-83
2021/10/31 01:44:47;;;;;;;31.02;17.63;;;;;;;5.94;72.11;95378.06;5111221;28;20073;-82
2021/10/31 01:47:32;;;;;;;31.77;17.45;;;;;;;5.76;72.79;95369.56;5094252;28;20030;-83
2021/10/31 01:50:22;;;;;;;30.02;18.55;;;;;;;5.86;72.90;95371.66;5094829;28;20134;-82
2021/10/31 01:52:53;;;;;;;31.55;18.25;;;;;;;5.92;72.74;95376.47;5110695;28;20055;-82
2021/10/31 01:55:22;;;;;;;36.30;19.67;;;;;;;5.91;72.85;95369.66;5093590;28;20035;-82
2021/10/31 01:57:48;;;;;;;34.30;18.90;;;;;;;5.91;72.81;95364.50;5094188;28;20055;-82
2021/10/31 02:00:15;;;;;;;31.85;18.58;;;;;;;5.92;72.64;95346.34;5093960;28;20572;-82
2021/10/31 02:02:43;;;;;;;36.35;19.77;;;;;;;5.90;72.46;95340.44;5094072;28;20031;-82
2021/10/31 02:05:09;;;;;;;36.63;20.80;;;;;;;6.10;72.42;95370.31;5077076;28;20028;-82
2021/10/31 02:07:39;;;;;;;38.70;21.52;;;;;;;6.04;72.81;95362.91;5093739;28;20473;-83
2021/10/31 02:10:05;;;;;;;32.95;19.48;;;;;;;6.04;73.03;95362.91;5094122;28;20153;-82
2021/10/31 02:12:31;;;;;;;31.65;17.58;;;;;;;6.09;72.80;95370.38;5110922;28;20119;-83
2021/10/31 02:14:56;;;;;;;33.55;18.77;;;;;;;6.03;72.88;95362.06;5093768;28;20068;-81
2021/10/31 02:17:22;;;;;;;34.85;21.20;;;;;;;5.76;72.91;95323.16;5093542;28;20023;-82
2021/10/31 02:19:47;;;;;;;38.67;19.85;;;;;;;6.05;73.01;95359.41;5093582;28;20524;-83
2021/10/31 02:22:27;;;;;;;26.13;16.50;;;;;;;5.72;72.99;95310.53;5093995;28;20321;-82
2021/10/31 02:24:53;;;;;;;27.48;16.08;;;;;;;6.06;72.87;95360.25;5093980;28;20035;-83
2021/10/31 02:27:20;;;;;;;29.77;17.70;;;;;;;5.99;72.76;95342.53;5093333;28;20032;-82
2021/10/31 02:29:51;;;;;;;31.33;17.73;;;;;;;6.04;72.63;95345.69;5077149;28;20080;-82
2021/10/31 02:32:17;;;;;;;31.63;18.30;;;;;;;5.88;73.00;95315.63;5093906;28;20028;-82
2021/10/31 02:34:43;;;;;;;33.38;17.75;;;;;;;6.16;72.80;95357.06;5110306;28;20044;-83
2021/10/31 02:37:09;;;;;;;45.78;23.83;;;;;;;6.19;72.92;95354.31;5111495;28;20473;-83
2021/10/31 02:39:34;;;;;;;36.92;19.17;;;;;;;6.24;72.66;95349.72;5114494;28;20031;-82
2021/10/31 02:42:00;;;;;;;38.20;23.08;;;;;;;6.21;73.03;95354.19;5114454;28;20080;-82
2021/10/31 02:44:25;;;;;;;45.30;26.05;;;;;;;6.15;73.25;95350.22;5097587;28;20516;-83
2021/10/31 02:46:51;;;;;;;38.42;20.65;;;;;;;6.25;73.00;95353.94;5115559;28;20509;-82
2021/10/31 02:49:16;;;;;;;36.33;20.05;;;;;;;6.21;72.89;95333.56;5114468;28;20032;-82
2021/10/31 02:51:54;;;;;;;37.63;21.52;;;;;;;6.18;72.91;95329.41;5114115;28;20042;-82
2021/10/31 02:54:48;;;;;;;35.10;19.52;;;;;;;6.35;72.81;95350.84;5114390;28;20164;-82
2021/10/31 02:57:54;;;;;;;36.35;21.80;;;;;;;6.31;73.03;95357.09;5114287;28;20115;-83
2021/10/31 03:00:20;;;;;;;42.08;24.23;;;;;;;6.16;73.13;95326.09;5114035;28;20032;-82
2021/10/31 03:02:46;;;;;;;42.60;24.20;;;;;;;6.32;73.04;95351.00;5096820;28;20127;-83
2021/10/31 03:05:11;;;;;;;33.40;20.92;;;;;;;6.35;73.09;95343.94;5113946;28;20035;-83
2021/10/31 03:07:37;;;;;;;32.13;19.80;;;;;;;6.40;73.00;95343.66;5096794;28;20028;-82
2021/10/31 03:10:03;;;;;;;31.30;18.35;;;;;;;6.39;72.88;95336.84;5113990;28;20101;-81
2021/10/31 03:12:28;;;;;;;35.88;21.90;;;;;;;6.45;72.75;95341.66;5113984;28;20104;-83
2021/10/31 03:14:54;;;;;;;37.80;22.33;;;;;;;6.42;72.77;95334.91;5113839;28;20031;-83
2021/10/31 03:17:19;;;;;;;36.90;20.08;;;;;;;6.47;72.72;95343.22;5096529;28;20031;-82
2021/10/31 03:19:45;;;;;;;33.50;18.77;;;;;;;6.39;72.88;95326.53;5115311;28;20586;-83
2021/10/31 03:22:10;;;;;;;30.52;19.00;;;;;;;6.46;72.67;95330.38;5096833;28;20028;-83
2021/10/31 03:24:36;;;;;;;35.17;21.65;;;;;;;6.45;72.92;95326.16;5096606;28;20027;-81
2021/10/31 03:27:02;;;;;;;49.53;28.58;;;;;;;6.54;72.54;95343.69;5114802;28;20397;-83
2021/10/31 03:29:27;;;;;;;72.93;38.17;;;;;;;6.48;72.84;95338.88;5079840;28;20148;-82
2021/10/31 03:31:53;;;;;;;88.35;42.92;;;;;;;6.48;72.98;95342.28;5096530;28;20031;-83
2021/10/31 03:34:18;;;;;;;78.88;38.55;;;;;;;6.43;72.79;95339.13;5114543;28;20056;-82
2021/10/31 03:36:44;;;;;;;68.65;34.00;;;;;;;6.53;72.62;95333.47;5096142;28;20458;-83
2021/10/31 03:39:10;;;;;;;61.72;33.13;;;;;;;6.56;72.51;95341.84;5096346;28;20035;-83
2021/10/31 03:41:35;;;;;;;78.13;37.28;;;;;;;6.47;72.64;95327.72;5096580;28;20039;-83
2021/10/31 03:44:02;;;;;;;66.50;33.88;;;;;;;6.49;72.65;95332.78;5113395;28;20405;-83
2021/10/31 03:46:27;;;;;;;62.95;34.88;;;;;;;6.38;72.54;95299.03;5079376;28;20031;-83
2021/10/31 03:48:53;;;;;;;73.80;37.17;;;;;;;6.32;72.58;95291.66;5111953;28;20507;-83
2021/10/31 03:51:19;;;;;;;59.35;31.83;;;;;;;6.62;72.77;95344.06;5096441;28;20038;-83
2021/10/31 03:53:44;;;;;;;57.80;31.83;;;;;;;6.48;72.26;95318.22;5095748;28;20042;-81
2021/10/31 03:56:09;;;;;;;58.15;33.45;;;;;;;6.65;72.13;95336.13;5113192;28;20019;-83
2021/10/31 03:58:35;;;;;;;64.32;36.70;;;;;;;6.50;72.27;95321.56;5096058;28;20387;-83
2021/10/31 04:01:00;;;;;;;66.18;35.58;;;;;;;6.65;72.18;95332.72;5095945;28;20034;-83
2021/10/31 04:03:27;;;;;;;67.18;37.92;;;;;;;6.53;72.47;95323.97;5112616;28;20092;-83
2021/10/31 04:05:52;;;;;;;51.38;29.77;;;;;;;6.48;72.52;95319.06;5112793;28;20020;-83
2021/10/31 04:08:18;;;;;;;62.40;37.03;;;;;;;6.60;72.41;95338.19;5112869;28;20524;-83
2021/10/31 04:10:43;;;;;;;53.88;31.17;;;;;;;6.59;72.13;95327.94;5112897;28;20024;-82
2021/10/31 04:13:09;;;;;;;55.90;31.27;;;;;;;6.49;71.92;95317.31;5078325;28;20490;-83
2021/10/31 04:15:34;;;;;;;48.78;28.58;;;;;;;6.47;71.48;95308.84;5112671;28;20557;-82
2021/10/31 04:17:59;;;;;;;46.13;26.83;;;;;;;6.57;71.16;95335.75;5112685;28;20036;-83
2021/10/31 04:20:25;;;;;;;52.50;29.30;;;;;;;6.51;71.09;95325.78;5112397;28;20028;-82
2021/10/31 04:22:51;;;;;;;51.05;26.92;;;;;;;6.47;71.21;95319.16;5095191;28;20032;-83
2021/10/31 04:25:17;;;;;;;50.70;26.92;;;;;;;6.52;71.26;95321.47;5112493;28;20039;-81
2021/10/31 04:27:42;;;;;;;44.42;26.23;;;;;;;6.30;71.01;95296.09;5112700;28;20023;-83
2021/10/31 04:30:08;;;;;;;43.97;25.55;;;;;;;6.50;70.95;95334.47;5078513;28;20560;-81
2021/10/31 04:32:34;;;;;;;64.50;39.75;;;;;;;6.45;70.86;95331.31;5112085;28;20028;-83
2021/10/31 04:35:00;;;;;;;47.33;29.52;;;;;;;6.46;70.85;95330.38;5078303;28;20083;-82
2021/10/31 04:37:26;;;;;;;47.45;28.23;;;;;;;6.47;70.82;95324.34;5095466;28;20452;-83
2021/10/31 04:39:52;;;;;;;48.72;28.50;;;;;;;6.45;70.88;95323.59;5078596;28;20039;-82
2021/10/31 04:42:18;;;;;;;50.25;29.85;;;;;;;6.48;70.63;95325.97;5111643;28;20039;-82
2021/10/31 04:44:44;;;;;;;47.65;28.63;;;;;;;6.47;70.65;95324.34;5078293;28;20031;-83
2021/10/31 04:47:09;;;;;;;44.53;25.75;;;;;;;6.38;70.46;95309.34;5095334;28;20031;-83
2021/10/31 04:49:35;;;;;;;45.88;27.67;;;;;;;6.38;70.65;95304.19;5095185;28;20043;-83
2021/10/31 04:52:00;;;;;;;44.22;26.45;;;;;;;6.42;70.37;95318.59;5078410;28;20039;-82
2021/10/31 04:54:26;;;;;;;51.22;30.27;;;;;;;6.37;70.44;95316.28;5095843;28;20126;-82
2021/10/31 04:56:51;;;;;;;52.08;30.73;;;;;;;6.28;70.45;95316.00;5094932;28;20281;-83
2021/10/31 04:59:17;;;;;;;46.50;28.60;;;;;;;6.20;70.81;95296.63;5094882;28;20027;-81
2021/10/31 05:01:43;;;;;;;53.28;32.38;;;;;;;6.28;70.74;95309.06;5094640;28;20027;-82
2021/10/31 05:04:08;;;;;;;49.33;28.08;;;;;;;6.27;70.63;95317.75;5095036;28;20039;-82
2021/10/31 05:06:34;;;;;;;45.92;28.10;;;;;;;6.23;71.01;95305.94;5094931;28;20028;-83
2021/10/31 05:08:59;;;;;;;58.13;32.67;;;;;;;6.15;70.73;95296.03;5078133;28;20421;-83
2021/10/31 05:11:25;;;;;;;53.97;30.23;;;;;;;6.23;71.00;95311.09;5094656;28;20039;-83
2021/10/31 05:13:50;;;;;;;45.67;27.67;;;;;;;6.22;70.70;95310.25;5077809;28;20028;-81
2021/10/31 05:16:16;;;;;;;62.45;34.42;;;;;;;6.21;71.06;95308.63;5094959;28;20088;-81
2021/10/31 05:18:41;;;;;;;66.32;35.05;;;;;;;6.12;71.26;95295.41;5094920;28;20425;-82
2021/10/31 05:21:07;;;;;;;58.13;32.05;;;;;;;6.24;70.86;95318.75;5111320;28;20035;-83
2021/10/31 05:23:32;;;;;;;75.93;39.40;;;;;;;6.11;71.26;95306.66;5077755;28;20390;-83
2021/10/31 05:25:58;;;;;;;73.10;37.40;;;;;;;6.14;71.35;95315.03;5111502;28;20057;-82
2021/10/31 05:28:24;;;;;;;59.25;33.58;;;;;;;6.09;71.41;95305.91;5111527;28;20028;-83
2021/10/31 05:30:51;;;;;;;55.92;30.85;;;;;;;6.21;71.21;95318.09;5112876;28;20027;-83
2021/10/31 05:33:17;;;;;;;57.67;32.40;;;;;;;6.23;71.34;95322.22;5094282;28;20497;-83
2021/10/31 05:35:43;;;;;;;55.90;32.10;;;;;;;6.28;71.38;95321.16;5078167;28;20479;-82
2021/10/31 05:38:10;;;;;;;64.43;36.90;;;;;;;6.22;71.60;95322.34;5077495;27;20019;-83
2021/10/31 05:40:36;;;;;;;63.72;37.50;;;;;;;6.19;72.00;95319.94;5136229;27;20399;-83
2021/10/31 05:43:01;;;;;;;62.35;34.05;;;;;;;6.20;71.61;95317.25;5135609;27;20030;-83
2021/10/31 05:45:27;;;;;;;66.25;36.95;;;;;;;6.24;71.45;95313.59;5152241;27;20027;-82
2021/10/31 05:47:53;;;;;;;65.55;35.28;;;;;;;6.26;71.45;95318.66;5134551;27;20034;-83
2021/10/31 05:50:21;;;;;;;72.55;37.95;;;;;;;6.22;71.33;95305.09;5117961;27;20026;-82
2021/10/31 05:52:47;;;;;;;77.82;38.60;;;;;;;6.36;71.18;95324.94;5125460;27;20130;-83
2021/10/31 05:55:14;;;;;;;65.40;37.00;;;;;;;6.39;71.21;95329.09;5139856;27;20113;-82
2021/10/31 05:57:40;;;;;;;73.55;40.65;;;;;;;6.40;71.20;95328.16;5158719;27;20038;-83
2021/10/31 06:00:07;;;;;;;77.05;41.40;;;;;;;6.45;71.19;95331.31;5155151;27;20488;-82
2021/10/31 06:02:32;;;;;;;72.97;37.60;;;;;;;6.49;71.12;95328.47;5155665;27;20051;-82
2021/10/31 06:04:59;;;;;;;68.68;36.63;;;;;;;6.53;71.15;95331.72;5154529;27;20019;-82
2021/10/31 06:07:24;;;;;;;81.53;42.40;;;;;;;6.58;70.82;95334.03;5153492;27;20448;-84
2021/10/31 06:09:50;;;;;;;76.35;39.90;;;;;;;6.64;70.74;95334.50;5153071;27;20022;-83
2021/10/31 06:12:15;;;;;;;73.65;40.25;;;;;;;6.66;70.59;95334.41;5136354;27;20698;-84
2021/10/31 06:14:41;;;;;;;59.88;32.28;;;;;;;6.58;70.35;95309.03;5156506;27;20023;-84
2021/10/31 06:17:07;;;;;;;57.35;33.38;;;;;;;6.75;70.06;95335.63;5156070;27;20045;-84
2021/10/31 06:19:32;;;;;;;57.38;34.35;;;;;;;6.64;70.00;95310.44;5156308;27;20033;-82
2021/10/31 06:21:58;;;;;;;60.00;33.45;;;;;;;6.82;69.89;95331.72;5156278;27;20031;-81
2021/10/31 06:24:23;;;;;;;52.05;28.80;;;;;;;6.87;69.70;95337.44;5156416;27;20022;-83
2021/10/31 06:26:49;;;;;;;63.53;35.83;;;;;;;6.84;69.76;95333.28;5138486;27;20030;-84
2021/10/31 06:29:14;;;;;;;57.88;32.25;;;;;;;6.93;69.71;95343.06;5121633;27;20027;-84
2021/10/31 06:31:41;;;;;;;58.95;31.13;;;;;;;6.84;69.43;95319.56;5138797;27;20027;-83
2021/10/31 06:34:07;;;;;;;47.15;28.85;;;;;;;6.91;69.46;95326.84;5121389;27;20026;-84
2021/10/31 06:36:32;;;;;;;47.22;26.75;;;;;;;7.04;69.26;95341.59;5121371;27;20041;-83
2021/10/31 06:38:58;;;;;;;55.05;28.50;;;;;;;7.12;69.21;95337.63;5121650;27;20042;-81
2021/10/31 06:41:23;;;;;;;42.85;26.88;;;;;;;7.14;69.28;95338.38;5156180;27;20476;-83
2021/10/31 06:43:49;;;;;;;51.78;30.52;;;;;;;7.23;69.15;95343.91;5138973;27;20503;-81
2021/10/31 06:46:14;;;;;;;44.53;25.05;;;;;;;7.27;68.99;95346.22;5138234;27;20027;-81
2021/10/31 06:48:40;;;;;;;45.95;27.38;;;;;;;7.18;68.56;95326.09;5138585;27;20023;-82
2021/10/31 06:51:05;;;;;;;46.40;27.27;;;;;;;7.40;68.81;95346.28;5138453;27;20424;-83
2021/10/31 06:53:31;;;;;;;38.22;23.55;;;;;;;7.61;69.19;95342.34;5155438;27;20041;-80
2021/10/31 06:55:56;;;;;;;41.15;22.77;;;;;;;7.85;70.42;95346.91;5137720;27;20035;-81
2021/10/31 06:58:22;;;;;;;38.15;22.13;;;;;;;7.79;70.44;95321.44;5138287;27;20030;-83
2021/10/31 07:00:47;;;;;;;42.65;23.85;;;;;;;7.98;69.59;95346.97;5138396;27;20041;-82
2021/10/31 07:03:13;;;;;;;41.13;24.70;;;;;;;7.95;69.16;95327.28;5120786;27;20063;-82
2021/10/31 07:05:38;;;;;;;38.55;21.55;;;;;;;7.99;68.06;95323.56;5154870;27;20057;-82
2021/10/31 07:08:04;;;;;;;40.15;22.50;;;;;;;8.16;67.47;95335.44;5138002;27;20046;-82
2021/10/31 07:10:29;;;;;;;40.75;22.50;;;;;;;8.10;66.33;95330.63;5155281;27;20026;-82
2021/10/31 07:12:55;;;;;;;48.10;24.95;;;;;;;8.19;66.63;95339.56;5137827;27;20062;-82
2021/10/31 07:15:20;;;;;;;42.92;25.20;;;;;;;8.20;65.78;95342.06;5155333;27;20322;-82
2021/10/31 07:17:46;;;;;;;46.90;27.65;;;;;;;8.23;65.88;95335.84;5155434;27;20035;-82
2021/10/31 07:20:13;;;;;;;40.38;24.00;;;;;;;8.23;65.91;95341.84;5120758;27;20492;-82
2021/10/31 07:22:40;;;;;;;40.50;22.73;;;;;;;8.29;65.49;95340.63;5154695;27;20416;-82
2021/10/31 07:25:07;;;;;;;42.20;24.88;;;;;;;8.27;65.42;95338.16;5120638;27;20030;-82
2021/10/31 07:27:32;;;;;;;43.00;23.20;;;;;;;8.34;65.17;95342.91;5137773;27;20037;-83
2021/10/31 07:29:58;;;;;;;61.83;35.47;;;;;;;8.30;65.47;95324.16;5154668;27;20105;-82
2021/10/31 07:32:23;;;;;;;43.58;26.35;;;;;;;8.36;65.35;95326.34;5154781;27;20034;-82
2021/10/31 07:34:49;;;;;;;45.55;27.38;;;;;;;8.47;65.14;95323.09;5154685;27;20050;-82
2021/10/31 07:37:15;;;;;;;44.38;24.63;;;;;;;8.52;65.35;95330.53;5120304;27;20071;-83
2021/10/31 07:39:42;;;;;;;62.40;30.38;;;;;;;8.42;64.89;95310.44;5120362;27;20503;-81
2021/10/31 07:42:07;;;;;;;47.30;25.30;;;;;;;8.56;64.80;95327.66;5154024;27;20030;-82
2021/10/31 07:44:33;;;;;;;114.63;46.40;;;;;;;8.26;64.91;95278.69;5154636;27;20054;-83
2021/10/31 07:46:58;;;;;;;123.97;49.78;;;;;;;8.53;64.71;95301.97;5154678;27;20030;-82
2021/10/31 07:49:24;;;;;;;87.40;37.05;;;;;;;8.67;64.62;95314.00;5137212;27;20023;-82
2021/10/31 07:51:50;;;;;;;96.15;39.85;;;;;;;8.72;65.03;95317.09;5137063;27;20019;-82
2021/10/31 07:54:21;;;;;;;65.57;31.20;;;;;;;8.79;64.77;95328.69;5137423;27;20046;-82
2021/10/31 07:56:47;;;;;;;57.53;28.10;;;;;;;8.84;64.58;95318.84;5121134;27;20079;-82
2021/10/31 07:59:13;;;;;;;85.50;36.63;;;;;;;8.85;64.40;95317.09;5123883;27;20037;-82
2021/10/31 08:01:38;;;;;;;70.78;34.47;;;;;;;8.93;64.58;95320.81;5136910;27;20027;-82
2021/10/31 08:04:04;;;;;;;79.60;36.65;;;;;;;8.98;64.23;95322.28;5136818;27;20249;-83
2021/10/31 08:06:29;;;;;;;63.47;31.02;;;;;;;9.02;64.34;95328.88;5136752;27;20054;-83
2021/10/31 08:08:54;;;;;;;91.93;41.70;;;;;;;9.03;64.05;95320.19;5136744;27;20038;-83
2021/10/31 08:11:20;;;;;;;69.53;34.60;;;;;;;8.94;64.12;95299.16;5153528;27;20033;-82
2021/10/31 08:13:45;;;;;;;75.60;37.38;;;;;;;9.08;63.87;95318.09;5136580;27;20041;-83
2021/10/31 08:16:11;;;;;;;74.53;34.97;;;;;;;9.08;63.79;95311.19;5136536;27;20019;-83
2021/10/31 08:18:36;;;;;;;73.57;34.53;;;;;;;9.12;63.81;95314.38;5153843;27;20035;-82
2021/10/31 08:21:02;;;;;;;60.00;31.65;;;;;;;9.15;63.59;95319.34;5119310;27;20396;-83
2021/10/31 08:23:28;;;;;;;55.65;27.83;;;;;;;9.18;63.85;95313.94;5119517;27;20492;-82
2021/10/31 08:25:53;;;;;;;46.60;25.98;;;;;;;9.08;63.61;95287.84;5153724;27;20042;-82
2021/10/31 08:28:20;;;;;;;42.83;25.00;;;;;;;9.21;63.63;95313.72;5153609;27;20019;-83
2021/10/31 08:30:49;;;;;;;51.80;26.73;;;;;;;9.24;63.79;95297.13;5153255;27;20031;-82
2021/10/31 08:33:23;;;;;;;45.50;25.85;;;;;;;9.24;63.47;95291.94;5153450;27;20045;-83
2021/10/31 08:35:49;;;;;;;42.42;23.98;;;;;;;9.23;63.72;95293.72;5120153;27;20484;-83
2021/10/31 08:38:14;;;;;;;39.63;23.25;;;;;;;9.18;63.48;95275.06;5133034;27;20051;-83
2021/10/31 08:40:40;;;;;;;42.28;25.77;;;;;;;9.34;63.46;95296.38;5094858;28;20024;-82
2021/10/31 08:43:07;;;;;;;47.63;25.73;;;;;;;9.36;63.75;95285.88;5077773;28;20089;-83
2021/10/31 08:45:32;;;;;;;43.67;24.08;;;;;;;9.44;63.13;95286.19;5113592;28;20454;-83
2021/10/31 08:47:58;;;;;;;46.00;25.63;;;;;;;9.40;63.63;95272.63;5095133;28;20116;-82
2021/10/31 08:50:24;;;;;;;72.75;33.67;;;;;;;9.54;63.62;95291.56;5111705;28;20027;-82
2021/10/31 08:52:49;;;;;;;49.55;26.33;;;;;;;9.58;63.44;95285.19;5111345;28;20036;-82
2021/10/31 08:55:14;;;;;;;59.88;28.13;;;;;;;9.42;62.23;95269.91;5095113;28;20051;-83
2021/10/31 08:57:40;;;;;;;89.65;41.53;;;;;;;9.56;63.16;95279.31;5094999;28;20035;-82
2021/10/31 09:00:06;;;;;;;74.20;34.17;;;;;;;9.63;63.30;95270.97;5094415;28;20425;-81
2021/10/31 09:02:32;;;;;;;58.42;29.17;;;;;;;9.85;63.30;95272.84;5094990;28;20103;-83
2021/10/31 09:04:57;;;;;;;58.03;29.70;;;;;;;9.94;63.00;95270.50;5095091;28;20108;-82
2021/10/31 09:07:22;;;;;;;55.28;27.48;;;;;;;9.88;62.69;95240.66;5094783;28;20035;-82
2021/10/31 09:09:48;;;;;;;41.13;20.60;;;;;;;10.02;61.04;95265.59;5094323;28;20023;-83
2021/10/31 09:12:14;;;;;;;37.88;22.45;;;;;;;10.04;60.42;95256.75;5095238;28;20034;-82
2021/10/31 09:14:40;;;;;;;32.22;19.15;;;;;;;9.99;57.66;95237.28;5112854;28;20032;-81
2021/10/31 09:17:05;;;;;;;21.67;15.15;;;;;;;10.29;54.76;95245.41;5111675;28;20035;-82
2021/10/31 09:19:31;;;;;;;18.48;13.60;;;;;;;10.33;53.86;95253.78;5111217;28;20512;-83
2021/10/31 09:21:56;;;;;;;17.92;13.93;;;;;;;10.42;53.93;95250.53;5077618;28;20481;-83
2021/10/31 09:24:22;;;;;;;16.95;11.88;;;;;;;10.43;51.33;95252.16;5128523;27;20505;-82
2021/10/31 09:26:47;;;;;;;17.80;13.18;;;;;;;10.42;51.71;95236.69;5111329;28;20521;-83
2021/10/31 09:29:12;;;;;;;19.08;12.82;;;;;;;10.49;52.63;95227.50;5112195;28;20022;-83
2021/10/31 09:31:38;;;;;;;21.05;15.07;;;;;;;10.79;52.26;95245.13;5128355;27;20046;-82
2021/10/31 09:34:04;;;;;;;18.20;12.65;;;;;;;10.73;51.40;95230.81;5112126;28;20550;-83
2021/10/31 09:36:34;;;;;;;18.13;12.80;;;;;;;10.90;51.73;95244.31;5111187;28;20039;-84
2021/10/31 09:39:00;;;;;;;18.90;13.13;;;;;;;10.82;51.17;95211.09;5110997;28;20023;-82
2021/10/31 09:41:30;;;;;;;18.63;12.90;;;;;;;10.90;51.47;95216.53;5111113;28;20043;-83
2021/10/31 09:44:04;;;;;;;16.60;12.93;;;;;;;10.87;50.11;95224.56;5111014;28;20023;-83
2021/10/31 09:46:30;;;;;;;17.77;12.30;;;;;;;10.90;50.07;95223.50;5095371;28;20130;-83
2021/10/31 09:48:58;;;;;;;18.65;13.65;;;;;;;10.91;50.95;95220.78;5093904;28;20034;-82
2021/10/31 09:51:24;;;;;;;18.55;13.63;;;;;;;11.05;51.01;95222.28;5127463;27;20032;-83
2021/10/31 09:53:49;;;;;;;18.88;12.70;;;;;;;11.05;50.69;95217.09;5110656;28;20042;-81
2021/10/31 09:56:15;;;;;;;17.73;13.18;;;;;;;11.15;51.23;95225.84;5127950;27;20047;-83
2021/10/31 09:58:43;;;;;;;18.08;12.75;;;;;;;11.13;50.36;95225.13;5110620;28;20027;-82
2021/10/31 10:01:25;;;;;;;17.73;12.82;;;;;;;11.09;50.16;95215.09;5111843;27;20031;-84
2021/10/31 10:03:54;;;;;;;18.73;12.77;;;;;;;11.15;50.48;95218.03;5112647;27;20031;-83
2021/10/31 10:06:23;;;;;;;22.30;15.20;;;;;;;11.21;50.37;95215.91;5074835;28;20557;-83
2021/10/31 10:08:59;;;;;;;21.55;14.50;;;;;;;11.06;49.52;95200.56;5108725;28;20020;-83
2021/10/31 10:11:25;;;;;;;19.23;13.88;;;;;;;11.11;49.75;95214.00;5109038;28;20039;-83
2021/10/31 10:13:51;;;;;;;20.45;13.50;;;;;;;10.85;49.52;95178.84;5093686;28;20036;-83
2021/10/31 10:16:24;;;;;;;19.58;14.90;;;;;;;10.98;49.92;95194.28;5076696;28;20031;-82
2021/10/31 10:18:50;;;;;;;18.85;13.55;;;;;;;11.09;50.45;95202.09;5093955;28;20040;-83
2021/10/31 10:21:30;;;;;;;17.88;13.30;;;;;;;11.07;49.70;95186.63;5093946;28;20485;-84
2021/10/31 10:23:56;;;;;;;18.88;13.23;;;;;;;11.18;49.90;95194.41;5093327;28;20458;-82
2021/10/31 10:26:31;;;;;;;18.60;13.02;;;;;;;11.22;49.80;95186.34;5093449;28;20024;-82
2021/10/31 10:29:26;;;;;;;18.27;14.10;;;;;;;11.15;49.32;95179.03;5110601;28;20392;-84
2021/10/31 10:32:03;;;;;;;18.65;13.93;;;;;;;11.23;49.48;95185.38;5095003;28;20031;-83
2021/10/31 10:34:46;;;;;;;16.63;13.27;;;;;;;11.27;49.38;95190.22;5077083;28;20077;-83
2021/10/31 10:37:13;;;;;;;20.38;14.65;;;;;;;11.12;49.76;95160.25;5110663;28;20043;-84
2021/10/31 10:39:39;;;;;;;20.33;14.45;;;;;;;11.18;50.09;95180.56;5110444;28;20481;-84
2021/10/31 10:42:05;;;;;;;17.00;12.75;;;;;;;11.25;50.23;95170.50;5095102;28;20095;-83
2021/10/31 10:44:39;;;;;;;17.67;14.02;;;;;;;11.31;50.29;95183.00;5110069;28;20035;-82
2021/10/31 10:47:07;;;;;;;17.42;13.38;;;;;;;11.34;49.61;95169.78;5093175;28;20035;-83
2021/10/31 10:49:38;;;;;;;19.45;13.98;;;;;;;11.29;49.18;95171.91;5110404;28;20055;-83
2021/10/31 10:52:04;;;;;;;17.65;13.70;;;;;;;11.31;49.79;95175.19;5076857;28;20031;-84
2021/10/31 10:54:29;;;;;;;16.75;13.40;;;;;;;11.36;49.89;95168.69;5111310;28;20460;-82
2021/10/31 10:57:06;;;;;;;18.67;13.07;;;;;;;11.19;49.01;95151.00;5094870;28;20032;-84
2021/10/31 10:59:32;;;;;;;15.35;11.88;;;;;;;11.19;48.18;95149.22;5099223;28;20077;-83
2021/10/31 11:02:17;;;;;;;14.65;11.90;;;;;;;11.14;47.94;95151.41;5114422;28;20027;-83
2021/10/31 11:04:44;;;;;;;15.98;11.98;;;;;;;11.07;48.89;95131.19;5097729;28;20031;-84
2021/10/31 11:07:09;;;;;;;15.95;11.70;;;;;;;11.22;48.46;95155.97;5080605;28;20024;-84
2021/10/31 11:09:45;;;;;;;17.13;12.40;;;;;;;11.26;48.78;95133.16;5079985;28;20034;-83
2021/10/31 11:12:28;;;;;;;17.58;12.48;;;;;;;11.43;48.86;95134.41;5080823;28;20039;-83
2021/10/31 11:14:56;;;;;;;15.65;11.38;;;;;;;11.50;47.07;95125.94;5102269;28;20073;-83
2021/10/31 11:17:22;;;;;;;17.67;11.57;;;;;;;11.69;46.97;95137.47;5080020;28;20070;-82
2021/10/31 11:19:48;;;;;;;13.27;11.18;;;;;;;11.66;46.57;95137.72;5114922;28;20473;-83
2021/10/31 11:22:13;;;;;;;15.13;10.40;;;;;;;11.63;46.76;95113.59;5113498;28;20136;-83
2021/10/31 11:24:39;;;;;;;18.95;12.15;;;;;;;11.83;46.87;95137.97;5113781;28;20034;-82
2021/10/31 11:27:09;;;;;;;16.27;12.18;;;;;;;11.90;45.86;95109.69;5113677;28;20481;-83